Time;durP1;ratioP1;P1;durP2;ratioP2;P2;SDS_P1;SDS_P2;PMS_P1;PMS_P2;Temp;Humidity;BMP_temperature;BMP_pressure;BME280_temperature;BME280_humidity;BME280_pressure;Samples;Min_cycle;Max_cycle;Signal;HPM_P1;HPM_P2
2022/06/19 00:01:35;;;;;;;5.78;2.67;;;;;;;15.86;72.12;99624.19;4363657;32;35328;-78
2022/06/19 00:04:04;;;;;;;5.12;3.03;;;;;;;16.15;71.34;99619.00;4366397;32;33731;-78
2022/06/19 00:06:34;;;;;;;7.62;2.87;;;;;;;16.23;70.79;99624.91;4363779;32;34907;-78
2022/06/19 00:09:04;;;;;;;3.65;2.80;;;;;;;16.64;69.00;99623.66;4366283;32;35065;-79
2022/06/19 00:11:33;;;;;;;4.47;2.72;;;;;;;16.65;68.83;99620.13;4365952;32;35133;-78
2022/06/19 00:14:02;;;;;;;5.30;3.10;;;;;;;16.55;69.53;99618.66;4367696;32;33875;-79
2022/06/19 00:16:29;;;;;;;5.22;2.67;;;;;;;16.56;69.67;99622.19;4365840;32;33887;-78
2022/06/19 00:18:58;;;;;;;5.62;2.78;;;;;;;16.70;69.25;99612.09;4366511;32;35120;-79
2022/06/19 00:21:26;;;;;;;4.62;2.47;;;;;;;16.54;69.79;99606.44;4366045;32;34344;-82
2022/06/19 00:23:54;;;;;;;4.28;2.83;;;;;;;16.45;70.15;99612.00;4367567;32;34356;-78
2022/06/19 00:26:22;;;;;;;3.97;2.60;;;;;;;16.83;68.72;99612.56;4365293;32;34090;-82
2022/06/19 00:28:50;;;;;;;4.00;2.62;;;;;;;16.71;69.16;99616.44;4365927;32;35720;-79
2022/06/19 00:31:17;;;;;;;4.20;2.90;;;;;;;16.64;69.52;99613.16;4361001;32;166461;-78
2022/06/19 00:33:46;;;;;;;5.53;2.78;;;;;;;16.54;69.40;99608.22;4364665;32;32653;-81
2022/06/19 00:36:13;;;;;;;3.85;2.83;;;;;;;16.30;70.64;99603.66;4350778;32;32919;-78
2022/06/19 00:38:41;;;;;;;6.10;2.83;;;;;;;16.38;70.43;99613.94;4365838;32;36118;-78
2022/06/19 00:41:09;;;;;;;5.70;3.12;;;;;;;16.33;70.94;99609.75;4367064;32;34999;-78
2022/06/19 00:44:02;;;;;;;6.43;3.33;;;;;;;16.20;71.02;99609.22;4364225;32;32049;-78
2022/06/19 00:46:54;;;;;;;7.70;3.30;;;;;;;16.21;71.25;99608.34;4364650;32;33577;-81
2022/06/19 00:49:29;;;;;;;5.40;3.22;;;;;;;15.97;71.72;99605.53;4339418;32;35036;-82
2022/06/19 00:52:21;;;;;;;4.80;3.17;;;;;;;16.14;71.43;99601.53;4360433;32;35056;-78
2022/06/19 00:55:11;;;;;;;4.45;3.00;;;;;;;16.06;71.67;99600.00;4365811;32;33802;-78
2022/06/19 00:57:45;;;;;;;6.25;2.90;;;;;;;15.88;72.83;99595.25;4364150;32;34155;-78
2022/06/19 01:00:24;;;;;;;5.55;3.17;;;;;;;16.07;71.81;99585.94;4363749;32;36016;-78
2022/06/19 01:02:55;;;;;;;4.62;3.47;;;;;;;15.91;72.22;99593.41;4358480;32;34504;-78
2022/06/19 01:05:25;;;;;;;5.78;2.72;;;;;;;16.16;71.12;99592.69;4361241;32;33649;-78
2022/06/19 01:07:54;;;;;;;4.12;2.95;;;;;;;16.24;70.96;99592.47;4361799;32;34049;-78
2022/06/19 01:10:22;;;;;;;7.03;3.47;;;;;;;16.09;71.93;99594.66;4364104;32;35220;-78
2022/06/19 01:12:50;;;;;;;4.87;3.33;;;;;;;15.81;73.13;99585.84;4362352;32;34522;-78
2022/06/19 01:15:21;;;;;;;6.30;3.65;;;;;;;16.19;72.06;99589.13;4363141;32;34448;-78
2022/06/19 01:17:52;;;;;;;4.57;3.05;;;;;;;16.08;72.68;99584.19;4361679;32;34725;-79
2022/06/19 01:20:23;;;;;;;5.15;3.47;;;;;;;16.10;72.58;99585.00;4361751;32;35014;-82
2022/06/19 01:23:01;;;;;;;7.07;3.30;;;;;;;15.96;72.82;99574.91;4360516;32;35317;-77
2022/06/19 01:25:31;;;;;;;4.47;3.10;;;;;;;15.92;73.11;99581.16;4363155;32;33729;-77
2022/06/19 01:30:51;;;;;;;7.90;3.20;;;;;;;16.06;72.65;99573.72;4362167;32;35559;-78
2022/06/19 01:33:34;;;;;;;7.35;3.37;;;;;;;16.10;72.55;99577.97;4362365;32;34531;-78
2022/06/19 01:36:03;;;;;;;4.90;3.45;;;;;;;15.92;73.59;99576.75;4362745;32;34505;-78
2022/06/19 01:38:32;;;;;;;4.85;3.28;;;;;;;16.02;73.34;99577.34;4358417;32;34221;-77
2022/06/19 01:41:06;;;;;;;4.05;2.85;;;;;;;16.11;72.95;99582.34;4360204;32;35201;-78
2022/06/19 01:43:35;;;;;;;5.15;3.28;;;;;;;16.11;72.99;99579.72;4362322;32;35382;-78
2022/06/19 01:46:04;;;;;;;5.00;3.67;;;;;;;16.19;72.62;99578.62;4362608;32;33835;-78
2022/06/19 01:48:33;;;;;;;7.45;3.70;;;;;;;16.20;72.56;99572.44;4360974;32;34172;-77
2022/06/19 01:51:04;;;;;;;5.82;3.58;;;;;;;16.09;72.76;99573.66;4363842;32;35037;-78
2022/06/19 01:53:36;;;;;;;5.00;3.53;;;;;;;16.05;72.73;99573.78;4351293;32;34564;-78
2022/06/19 01:56:07;;;;;;;6.55;3.40;;;;;;;16.02;72.99;99574.69;4347050;33;34375;-77
2022/06/19 01:58:36;;;;;;;6.80;3.33;;;;;;;15.88;73.69;99569.00;4357039;32;33462;-78
2022/06/19 02:01:05;;;;;;;4.87;3.10;;;;;;;15.88;73.67;99569.00;4360927;32;35122;-78
2022/06/19 02:03:49;;;;;;;5.68;3.45;;;;;;;15.87;73.41;99569.91;4361232;32;35193;-78
2022/06/19 02:06:20;;;;;;;5.82;3.60;;;;;;;15.79;73.67;99558.75;4363906;32;33603;-78
2022/06/19 02:08:49;;;;;;;5.07;3.58;;;;;;;15.76;73.77;99557.09;4362264;32;33843;-78
2022/06/19 02:11:17;;;;;;;5.30;3.47;;;;;;;15.78;73.61;99547.41;4362499;32;35098;-78
2022/06/19 02:13:46;;;;;;;6.05;3.67;;;;;;;15.63;74.37;99542.56;4360953;32;34716;-78
2022/06/19 02:16:19;;;;;;;5.18;3.67;;;;;;;15.69;74.27;99556.38;4362182;32;33694;-78
2022/06/19 02:18:50;;;;;;;5.22;3.78;;;;;;;15.71;74.45;99553.72;4361026;32;33982;-78
2022/06/19 02:21:22;;;;;;;5.90;3.85;;;;;;;15.69;74.36;99543.25;4363638;32;35159;-78
2022/06/19 02:23:49;;;;;;;5.12;3.45;;;;;;;15.77;73.78;99544.81;4361322;32;35204;-78
2022/06/19 02:26:17;;;;;;;5.15;3.60;;;;;;;15.76;73.88;99545.72;4361027;32;33671;-77
2022/06/19 02:28:49;;;;;;;7.50;3.67;;;;;;;15.76;73.99;99550.97;4362019;32;34099;-78
2022/06/19 02:31:18;;;;;;;5.57;3.80;;;;;;;15.68;74.36;99559.03;4362452;32;35015;-78
2022/06/19 02:33:51;;;;;;;4.60;3.45;;;;;;;15.66;74.41;99556.47;4360998;32;34524;-78
2022/06/19 02:36:44;;;;;;;5.05;3.37;;;;;;;15.58;75.13;99555.78;4362524;32;34782;-78
2022/06/19 02:39:27;;;;;;;5.57;3.80;;;;;;;15.64;74.96;99560.88;4361171;32;33897;-78
2022/06/19 02:42:19;;;;;;;5.00;3.62;;;;;;;15.66;75.18;99558.22;4362096;32;35227;-77
2022/06/19 02:44:52;;;;;;;9.50;3.50;;;;;;;15.46;75.58;99556.12;4342434;32;35375;-78
2022/06/19 02:47:22;;;;;;;5.10;3.65;;;;;;;15.21;76.94;99548.91;4360906;32;34502;-78
2022/06/19 02:49:51;;;;;;;5.53;4.00;;;;;;;15.32;76.87;99552.13;4362334;32;33859;-78
2022/06/19 02:52:19;;;;;;;5.78;4.40;;;;;;;15.47;75.98;99548.22;4348489;32;35270;-78
2022/06/19 02:54:48;;;;;;;4.75;3.45;;;;;;;15.30;76.76;99551.31;4362273;32;33631;-78
2022/06/19 02:57:17;;;;;;;5.22;3.60;;;;;;;15.41;76.69;99548.41;4354980;32;33856;-83
2022/06/19 02:59:45;;;;;;;6.00;3.53;;;;;;;15.15;77.71;99544.69;4348370;33;33402;-78
2022/06/19 03:02:13;;;;;;;7.28;4.00;;;;;;;15.39;76.38;99538.84;4350393;32;35243;-83
2022/06/19 03:04:45;;;;;;;7.15;3.62;;;;;;;15.39;77.13;99547.59;4332648;33;34561;-78
2022/06/19 03:07:13;;;;;;;6.22;3.80;;;;;;;15.48;76.91;99543.84;4333640;32;33219;-82
2022/06/19 03:09:40;;;;;;;6.18;3.78;;;;;;;15.61;75.96;99542.59;4332512;33;34760;-77
2022/06/19 03:12:10;;;;;;;7.43;3.50;;;;;;;15.34;77.25;99542.47;4332558;33;35034;-78
2022/06/19 03:14:44;;;;;;;5.95;3.72;;;;;;;15.63;76.16;99535.53;4363263;32;33890;-78
2022/06/19 03:17:19;;;;;;;4.97;3.60;;;;;;;15.75;75.79;99536.13;4362503;32;34607;-81
2022/06/19 03:19:54;;;;;;;5.55;3.85;;;;;;;15.75;75.87;99537.00;4343928;33;33925;-78
2022/06/19 03:22:22;;;;;;;6.75;4.12;;;;;;;15.90;75.43;99530.41;4332991;32;35228;-77
2022/06/19 03:24:50;;;;;;;187.15;18.85;;;;;;;15.89;75.23;99533.97;4361729;32;34601;-77
2022/06/19 03:27:18;;;;;;;19.77;4.43;;;;;;;15.58;77.20;99534.78;4360852;32;33852;-82
2022/06/19 03:29:47;;;;;;;8.60;3.62;;;;;;;15.86;76.77;99529.66;4333220;32;34958;-81
2022/06/19 03:32:15;;;;;;;7.70;3.50;;;;;;;16.01;76.16;99523.09;4346802;33;35022;-81
2022/06/19 03:34:43;;;;;;;6.07;4.10;;;;;;;16.07;75.97;99522.91;4361416;32;34490;-78
2022/06/19 03:37:12;;;;;;;5.28;3.80;;;;;;;16.00;76.79;99531.88;4360887;32;34487;-78
2022/06/19 03:39:40;;;;;;;11.60;3.97;;;;;;;15.85;77.89;99527.09;4361520;32;33914;-77
2022/06/19 03:42:08;;;;;;;5.32;3.60;;;;;;;15.85;78.82;99530.56;4362952;32;35039;-77
2022/06/19 03:44:36;;;;;;;5.18;3.65;;;;;;;16.22;77.54;99528.63;4360162;32;35366;-82
2022/06/19 03:47:05;;;;;;;5.05;3.80;;;;;;;16.35;77.31;99531.72;4360555;32;33654;-77
2022/06/19 03:49:33;;;;;;;6.07;3.97;;;;;;;16.41;77.48;99536.75;4360660;32;34821;-78
2022/06/19 03:52:02;;;;;;;5.85;3.28;;;;;;;16.41;78.54;99537.66;4349419;32;34511;-78
2022/06/19 03:54:29;;;;;;;5.10;3.85;;;;;;;16.80;77.37;99528.50;4345337;32;33685;-82
2022/06/19 03:56:57;;;;;;;5.53;3.70;;;;;;;16.98;76.58;99538.44;4355041;32;34455;-78
2022/06/19 03:59:25;;;;;;;6.18;3.60;;;;;;;17.03;76.86;99535.66;4358553;32;34661;-78
2022/06/19 04:01:54;;;;;;;6.95;3.60;;;;;;;17.50;74.96;99530.47;4361337;32;35193;-78
2022/06/19 04:04:22;;;;;;;3.87;3.03;;;;;;;17.60;74.60;99525.75;4361162;32;34487;-78
2022/06/19 04:06:50;;;;;;;4.70;3.35;;;;;;;17.76;74.23;99531.31;4362701;32;33641;-78
2022/06/19 04:09:18;;;;;;;5.15;3.55;;;;;;;17.78;75.01;99529.47;4361337;32;33901;-78
2022/06/19 04:11:46;;;;;;;5.75;3.22;;;;;;;17.91;74.64;99527.25;4361374;32;34555;-78
2022/06/19 04:14:15;;;;;;;4.95;3.30;;;;;;;18.14;73.57;99515.84;4361001;32;34481;-78
2022/06/19 04:16:43;;;;;;;5.22;2.97;;;;;;;18.75;70.93;99523.91;4359602;32;34572;-78
2022/06/19 04:19:12;;;;;;;6.45;3.35;;;;;;;18.90;71.01;99526.88;4360922;32;34770;-78
2022/06/19 04:21:42;;;;;;;4.85;3.25;;;;;;;19.08;70.49;99526.09;4361218;32;35859;-79
2022/06/19 04:24:12;;;;;;;4.30;3.30;;;;;;;19.37;69.50;99526.63;4360991;32;33668;-78
2022/06/19 04:26:41;;;;;;;6.22;3.30;;;;;;;19.65;69.04;99523.59;4361236;32;33726;-78
2022/06/19 04:29:10;;;;;;;7.50;3.40;;;;;;;19.80;68.93;99518.56;4359596;32;33806;-78
2022/06/19 04:31:38;;;;;;;4.68;2.70;;;;;;;19.89;69.63;99512.87;4362201;32;35947;-79
2022/06/19 04:34:06;;;;;;;6.62;3.28;;;;;;;20.32;68.08;99513.50;4359341;32;34513;-78
2022/06/19 04:36:34;;;;;;;4.50;3.25;;;;;;;19.94;70.62;99520.59;4360925;32;33771;-78
2022/06/19 04:39:03;;;;;;;6.43;3.28;;;;;;;20.42;67.56;99522.69;4361984;32;33823;-78
2022/06/19 04:41:33;;;;;;;4.68;3.33;;;;;;;20.45;66.92;99526.97;4363004;32;36054;-78
2022/06/19 04:44:00;;;;;;;4.85;3.42;;;;;;;20.77;66.76;99527.22;4361669;32;35159;-78
2022/06/19 04:46:28;;;;;;;5.30;2.90;;;;;;;20.61;66.64;99525.34;4364360;32;34385;-78
2022/06/19 04:48:57;;;;;;;4.28;2.97;;;;;;;21.04;63.16;99529.44;4354492;32;34618;-78
2022/06/19 04:51:25;;;;;;;4.65;2.70;;;;;;;20.92;62.27;99534.38;4364226;32;34720;-78
2022/06/19 04:53:53;;;;;;;4.80;2.65;;;;;;;21.17;61.13;99527.84;4354619;32;35359;-81
2022/06/19 04:56:22;;;;;;;5.93;2.90;;;;;;;20.98;61.00;99536.75;4349174;33;34424;-80
2022/06/19 04:58:50;;;;;;;4.18;2.83;;;;;;;22.04;59.93;99534.75;4335891;33;33935;-81
2022/06/19 05:01:30;;;;;;;3.70;2.65;;;;;;;22.27;59.66;99531.72;4347686;33;35976;-81
2022/06/19 05:04:00;;;;;;;4.22;2.83;;;;;;;22.75;58.45;99534.31;4349301;33;35337;-81
2022/06/19 05:06:29;;;;;;;3.75;2.42;;;;;;;21.90;59.14;99538.16;4349081;33;33877;-82
2022/06/19 05:08:57;;;;;;;3.50;2.30;;;;;;;22.42;59.09;99543.28;4344248;33;33955;-78
2022/06/19 05:11:27;;;;;;;4.35;2.72;;;;;;;22.87;58.35;99546.88;4360972;32;35032;-78
2022/06/19 05:13:55;;;;;;;4.43;2.80;;;;;;;23.26;55.61;99544.66;4362473;32;35265;-78
2022/06/19 05:16:24;;;;;;;3.05;2.28;;;;;;;23.38;54.72;99548.34;4363031;32;34394;-78
2022/06/19 05:18:54;;;;;;;4.78;2.20;;;;;;;23.58;55.03;99545.34;4362506;32;34943;-79
2022/06/19 05:21:23;;;;;;;4.68;2.70;;;;;;;24.69;51.12;99549.03;4361501;32;34911;-80
2022/06/19 05:23:52;;;;;;;4.22;2.60;;;;;;;24.73;50.17;99550.53;4361396;32;34570;-78
2022/06/19 05:26:25;;;;;;;5.68;2.70;;;;;;;25.00;50.18;99552.28;4364093;32;34827;-78
2022/06/19 05:28:55;;;;;;;4.18;2.83;;;;;;;24.97;50.14;99550.72;4362463;32;34068;-79
2022/06/19 05:31:25;;;;;;;4.30;2.80;;;;;;;24.26;52.46;99551.78;4361618;32;35100;-79
2022/06/19 05:33:54;;;;;;;3.15;2.50;;;;;;;23.90;53.68;99544.34;4362465;32;34514;-78
2022/06/19 05:36:22;;;;;;;3.75;2.58;;;;;;;25.26;50.07;99553.22;4362618;32;34159;-80
2022/06/19 05:38:50;;;;;;;5.80;2.60;;;;;;;24.88;50.96;99547.78;4362425;32;34060;-78
2022/06/19 05:41:18;;;;;;;3.72;2.62;;;;;;;24.91;50.63;99553.78;4363738;32;35819;-79
2022/06/19 05:43:49;;;;;;;4.82;2.30;;;;;;;25.24;50.28;99554.28;4362346;32;34487;-79
2022/06/19 05:46:18;;;;;;;5.60;2.75;;;;;;;26.16;48.21;99555.88;4363924;32;33679;-78
2022/06/19 05:48:47;;;;;;;4.28;2.60;;;;;;;25.69;49.49;99554.72;4356866;32;34762;-81
2022/06/19 05:51:16;;;;;;;6.65;2.60;;;;;;;25.17;50.11;99557.34;4347133;33;35714;-78
2022/06/19 05:53:47;;;;;;;6.40;2.80;;;;;;;26.48;48.21;99550.00;4346059;32;35226;-78
2022/06/19 05:56:15;;;;;;;3.75;2.40;;;;;;;26.10;48.98;99554.50;4359917;32;33684;-78
2022/06/19 05:58:43;;;;;;;4.43;2.58;;;;;;;27.21;45.77;99562.38;4362568;32;33898;-79
2022/06/19 06:01:13;;;;;;;3.42;2.28;;;;;;;27.25;46.85;99554.97;4361144;32;34943;-79
2022/06/19 06:03:44;;;;;;;6.93;2.37;;;;;;;27.51;47.27;99552.13;4362265;32;35030;-79
2022/06/19 06:06:20;;;;;;;4.43;2.60;;;;;;;27.33;47.05;99557.91;4362701;32;33771;-79
2022/06/19 06:08:49;;;;;;;3.83;2.37;;;;;;;27.60;45.68;99552.25;4362265;32;33829;-79
2022/06/19 06:11:18;;;;;;;6.15;2.72;;;;;;;27.69;45.05;99549.81;4362518;32;35134;-78
2022/06/19 06:13:46;;;;;;;5.03;2.58;;;;;;;28.27;45.33;99561.28;4359423;32;34613;-78
2022/06/19 06:16:17;;;;;;;4.60;2.60;;;;;;;27.78;46.84;99552.63;4362499;32;33671;-78
2022/06/19 06:18:45;;;;;;;3.85;2.60;;;;;;;27.74;45.58;99548.50;4356423;32;34186;-79
2022/06/19 06:21:20;;;;;;;4.68;2.72;;;;;;;28.17;44.28;99553.13;4347294;32;35904;-79
2022/06/19 06:23:48;;;;;;;4.82;2.72;;;;;;;28.13;44.15;99553.47;4359410;32;35269;-80
2022/06/19 06:26:19;;;;;;;6.62;2.50;;;;;;;29.30;42.37;99558.13;4362306;32;34384;-79
2022/06/19 06:28:48;;;;;;;6.57;3.00;;;;;;;29.13;41.52;99558.69;4358808;32;33017;-79
2022/06/19 06:31:17;;;;;;;3.33;2.17;;;;;;;29.67;40.71;99568.38;4363774;32;34939;-79
2022/06/19 06:33:46;;;;;;;3.03;2.50;;;;;;;29.57;38.07;99559.41;4361330;32;35388;-79
2022/06/19 06:36:16;;;;;;;3.05;2.03;;;;;;;29.55;38.49;99561.38;4362182;32;33646;-78
2022/06/19 06:38:44;;;;;;;5.82;2.30;;;;;;;30.08;34.50;99562.22;4360692;32;34152;-79
2022/06/19 06:41:14;;;;;;;7.50;2.17;;;;;;;29.13;37.67;99561.34;4360984;32;35115;-79
2022/06/19 06:43:44;;;;;;;3.40;2.17;;;;;;;29.86;33.02;99562.28;4348714;32;35289;-79
2022/06/19 06:46:21;;;;;;;4.70;2.17;;;;;;;30.48;32.34;99564.03;4362280;32;33783;-79
2022/06/19 06:48:50;;;;;;;2.78;2.00;;;;;;;30.96;32.00;99561.41;4354274;32;33949;-78
2022/06/19 06:51:22;;;;;;;3.58;2.25;;;;;;;30.34;32.05;99563.44;4356215;32;34924;-78
2022/06/19 06:53:51;;;;;;;5.35;2.35;;;;;;;29.68;32.29;99564.72;4360827;32;34706;-78
2022/06/19 06:56:20;;;;;;;4.95;2.40;;;;;;;29.92;33.09;99565.41;4361982;32;33798;-81
2022/06/19 06:58:48;;;;;;;1.98;1.70;;;;;;;30.65;30.93;99571.41;4361944;32;34588;-80
2022/06/19 07:01:19;;;;;;;3.08;1.90;;;;;;;30.28;30.29;99558.56;4362152;32;36036;-78
2022/06/19 07:03:52;;;;;;;5.12;2.25;;;;;;;30.15;30.55;99569.56;4361530;32;34524;-79
2022/06/19 07:06:23;;;;;;;3.00;2.12;;;;;;;29.92;32.04;99577.00;4363557;32;34614;-82
2022/06/19 07:08:52;;;;;;;2.97;2.25;;;;;;;29.85;31.50;99576.66;4361928;32;33854;-81
2022/06/19 07:11:23;;;;;;;3.60;1.90;;;;;;;29.81;31.65;99579.78;4363289;32;34699;-80
2022/06/19 07:13:51;;;;;;;12.02;2.67;;;;;;;29.93;32.52;99576.00;4359356;32;34441;-78
2022/06/19 07:16:19;;;;;;;3.28;2.17;;;;;;;29.15;35.92;99567.47;4362011;32;33690;-77
2022/06/19 07:18:47;;;;;;;4.43;2.17;;;;;;;30.52;32.34;99562.78;4360110;32;34111;-79
2022/06/19 07:21:15;;;;;;;2.70;1.90;;;;;;;30.36;32.02;99561.47;4360736;32;35014;-79
2022/06/19 07:23:44;;;;;;;3.97;1.95;;;;;;;30.16;30.50;99559.69;4358495;32;34381;-79
2022/06/19 07:26:13;;;;;;;2.72;2.15;;;;;;;29.97;31.44;99563.16;4361205;32;34422;-78
2022/06/19 07:28:42;;;;;;;6.22;2.17;;;;;;;30.06;31.62;99565.87;4360920;32;34036;-79
2022/06/19 07:31:11;;;;;;;3.28;2.22;;;;;;;30.16;33.01;99567.72;4361924;32;34954;-78
2022/06/19 07:33:39;;;;;;;7.82;3.60;;;;;;;30.77;31.56;99556.84;4359833;32;35121;-78
2022/06/19 07:36:11;;;;;;;3.67;2.42;;;;;;;30.45;33.44;99561.63;4363043;32;34012;-78
2022/06/19 07:38:39;;;;;;;4.85;2.50;;;;;;;30.18;32.08;99558.56;4361439;32;34833;-80
2022/06/19 07:41:07;;;;;;;4.25;2.55;;;;;;;30.39;31.82;99561.19;4362280;32;33257;-78
2022/06/19 07:43:35;;;;;;;7.00;2.67;;;;;;;30.14;33.15;99556.28;4360165;32;34496;-82
2022/06/19 07:46:04;;;;;;;10.85;2.80;;;;;;;29.26;32.33;99556.69;4360566;32;34473;-79
2022/06/19 07:51:19;;;;;;;7.30;2.17;;;;;;;30.18;30.89;99555.03;4333273;33;34968;-79
2022/06/19 07:53:47;;;;;;;6.35;2.67;;;;;;;30.55;32.42;99547.22;4336618;32;34597;-79
2022/06/19 07:56:15;;;;;;;3.75;2.20;;;;;;;31.51;30.54;99550.03;4361909;32;33723;-79
2022/06/19 07:58:43;;;;;;;3.05;2.00;;;;;;;31.91;29.85;99551.59;4359563;32;34003;-78
2022/06/19 08:01:11;;;;;;;3.55;2.20;;;;;;;31.05;29.10;99546.25;4361310;32;35150;-78
2022/06/19 08:03:39;;;;;;;2.95;2.10;;;;;;;31.10;30.62;99552.06;4359903;32;35346;-79
2022/06/19 08:06:07;;;;;;;3.90;2.20;;;;;;;30.75;29.89;99529.25;4362739;32;34073;-78
2022/06/19 08:08:35;;;;;;;5.28;2.12;;;;;;;30.93;29.78;99533.97;4359833;32;34724;-80
2022/06/19 08:11:04;;;;;;;2.95;2.12;;;;;;;31.49;28.00;99527.78;4362561;32;35337;-79
2022/06/19 08:13:33;;;;;;;4.07;2.20;;;;;;;31.51;28.39;99516.88;4361141;32;35236;-79
2022/06/19 08:16:07;;;;;;;3.42;2.08;;;;;;;31.29;30.68;99529.66;4364444;32;34280;-79
2022/06/19 08:18:37;;;;;;;4.62;2.25;;;;;;;31.19;28.80;99524.28;4359638;32;34578;-79
2022/06/19 08:21:05;;;;;;;4.57;2.10;;;;;;;31.19;30.60;99516.22;4342743;32;35830;-79
2022/06/19 08:23:33;;;;;;;5.25;2.20;;;;;;;31.50;28.71;99507.09;4362270;32;35302;-78
2022/06/19 08:26:01;;;;;;;3.03;2.00;;;;;;;31.70;27.55;99522.19;4363622;32;32151;-78
2022/06/19 08:28:43;;;;;;;9.65;2.87;;;;;;;30.93;28.49;99515.13;4364423;32;34367;-79
2022/06/19 08:31:11;;;;;;;3.17;2.20;;;;;;;31.43;27.62;99509.53;4333669;33;35192;-80
2022/06/19 08:33:39;;;;;;;5.15;2.20;;;;;;;30.97;28.72;99513.84;4349395;32;35261;-79
2022/06/19 08:36:10;;;;;;;4.43;2.47;;;;;;;30.77;31.23;99503.06;4364154;32;33549;-79
2022/06/19 08:38:47;;;;;;;2.30;2.00;;;;;;;30.96;28.39;99510.31;4362609;32;34059;-80
2022/06/19 08:41:31;;;;;;;5.72;2.25;;;;;;;31.39;29.14;99508.09;4350454;32;35220;-79
2022/06/19 08:44:15;;;;;;;7.15;2.40;;;;;;;31.14;28.37;99507.72;4362728;32;34462;-79
2022/06/19 08:46:58;;;;;;;4.85;2.60;;;;;;;31.83;28.31;99513.75;4363235;32;33332;-79
2022/06/19 08:49:48;;;;;;;4.75;2.10;;;;;;;31.62;28.68;99507.78;4355300;32;34642;-78
2022/06/19 08:52:31;;;;;;;3.37;2.08;;;;;;;32.35;27.96;99506.97;4348284;33;34507;-78
2022/06/19 08:55:28;;;;;;;3.67;2.20;;;;;;;31.91;29.18;99507.66;4355872;32;35042;-79
2022/06/19 08:58:23;;;;;;;3.25;2.05;;;;;;;31.92;29.12;99510.16;4364199;32;34561;-79
2022/06/19 09:00:57;;;;;;;5.18;2.37;;;;;;;32.25;27.92;99505.19;4358982;32;33833;-80
2022/06/19 09:06:45;;;;;;;5.50;2.20;;;;;;;31.70;28.14;99505.19;4364088;32;35337;-79
2022/06/19 09:09:34;;;;;;;4.87;2.30;;;;;;;32.43;29.71;99507.06;4362698;32;34545;-78
2022/06/19 09:12:14;;;;;;;7.25;2.20;;;;;;;32.59;27.11;99509.06;4364159;32;34831;-79
2022/06/19 09:15:04;;;;;;;5.65;2.50;;;;;;;33.40;27.01;99495.41;4362480;32;35123;-79
2022/06/19 09:17:53;;;;;;;6.30;2.30;;;;;;;33.59;27.24;99502.44;4351036;32;35336;-79
2022/06/19 09:20:40;;;;;;;2.97;2.00;;;;;;;33.43;25.70;99500.50;4360827;32;33847;-79
2022/06/19 09:23:23;;;;;;;3.62;2.20;;;;;;;33.52;28.15;99498.69;4362819;32;33938;-80
2022/06/19 09:26:32;;;;;;;4.37;1.92;;;;;;;33.71;25.16;99500.34;4361913;32;35093;-79
2022/06/19 09:29:05;;;;;;;3.60;1.58;;;;;;;32.94;24.94;99486.62;4361213;32;35350;-78
2022/06/19 09:31:42;;;;;;;5.47;2.30;;;;;;;33.03;30.99;99483.00;4362925;32;34494;-82
2022/06/19 09:34:20;;;;;;;4.12;2.37;;;;;;;32.90;25.42;99479.88;4360339;32;34804;-78
2022/06/19 09:36:54;;;;;;;2.55;1.83;;;;;;;33.00;24.96;99483.34;4361345;32;35986;-80
2022/06/19 09:39:53;;;;;;;3.25;1.70;;;;;;;32.77;26.55;99480.25;4344776;32;34438;-79
2022/06/19 09:42:44;;;;;;;2.50;1.60;;;;;;;33.15;24.96;99486.31;4362704;32;33746;-79
2022/06/19 09:45:36;;;;;;;4.20;1.80;;;;;;;33.31;24.75;99484.75;4362674;32;34668;-79
2022/06/19 09:48:26;;;;;;;2.65;2.00;;;;;;;33.37;24.66;99476.84;4363868;32;35125;-79
2022/06/19 09:51:10;;;;;;;3.67;1.92;;;;;;;32.24;26.48;99473.84;4362705;32;34723;-79
2022/06/19 09:53:41;;;;;;;2.37;1.70;;;;;;;33.18;26.12;99480.63;4352829;32;34437;-79
2022/06/19 09:56:42;;;;;;;2.17;1.67;;;;;;;33.69;24.24;99471.78;4361801;32;34785;-78
2022/06/19 09:59:20;;;;;;;2.33;1.85;;;;;;;32.98;25.10;99469.13;4361039;32;34853;-78
2022/06/19 10:01:56;;;;;;;3.62;2.00;;;;;;;33.18;24.96;99467.13;4362612;32;33481;-79
2022/06/19 10:04:39;;;;;;;3.17;1.87;;;;;;;31.68;25.81;99458.72;4349318;32;32874;-78
2022/06/19 10:07:11;;;;;;;3.90;1.80;;;;;;;32.31;24.31;99456.09;4363878;32;34715;-79
2022/06/19 10:09:48;;;;;;;2.30;1.67;;;;;;;32.61;24.37;99462.09;4345947;32;35133;-78
2022/06/19 10:12:27;;;;;;;9.18;2.62;;;;;;;32.36;26.82;99457.47;4362421;32;35147;-78
2022/06/19 10:15:00;;;;;;;10.70;2.67;;;;;;;33.20;24.60;99462.41;4359366;32;33812;-79
2022/06/19 10:17:41;;;;;;;4.57;2.20;;;;;;;32.79;25.41;99451.31;4362728;32;33963;-78
2022/06/19 10:20:19;;;;;;;3.75;1.90;;;;;;;32.52;24.92;99446.00;4359674;32;35118;-79
2022/06/19 10:23:34;;;;;;;3.12;1.83;;;;;;;32.18;24.86;99439.44;4362410;32;35249;-79
2022/06/19 10:26:18;;;;;;;3.45;1.80;;;;;;;32.22;25.31;99445.37;4348302;32;33485;-79
2022/06/19 10:28:53;;;;;;;2.20;1.65;;;;;;;32.91;24.65;99435.69;4363774;32;34114;-81
2022/06/19 10:31:53;;;;;;;2.83;1.90;;;;;;;32.42;26.48;99430.75;4347171;32;35390;-79
2022/06/19 10:34:27;;;;;;;3.70;2.00;;;;;;;33.25;24.30;99416.06;4361750;32;34326;-81
2022/06/19 10:37:07;;;;;;;4.12;1.65;;;;;;;33.33;26.22;99434.97;4362295;32;34612;-79
2022/06/19 10:39:57;;;;;;;3.42;1.75;;;;;;;32.93;24.20;99425.59;4358548;32;34021;-83
2022/06/19 10:42:45;;;;;;;3.30;1.67;;;;;;;33.05;24.11;99424.31;4354677;32;35057;-79
2022/06/19 10:45:38;;;;;;;4.90;1.90;;;;;;;32.84;25.31;99423.84;4351525;32;34019;-79
2022/06/19 10:48:25;;;;;;;3.60;1.75;;;;;;;32.31;24.39;99412.09;4362515;32;34507;-78
2022/06/19 10:51:21;;;;;;;2.40;1.73;;;;;;;32.39;25.47;99411.34;4362068;32;34713;-78
2022/06/19 10:54:11;;;;;;;12.43;2.10;;;;;;;32.53;24.49;99400.00;4359160;32;35910;-80
2022/06/19 10:56:50;;;;;;;4.43;1.70;;;;;;;32.00;25.50;99395.47;4357912;32;34476;-78
2022/06/19 10:59:18;;;;;;;4.03;1.60;;;;;;;31.27;26.29;99402.47;4360704;32;34255;-78
2022/06/19 11:05:11;;;;;;;9.32;1.62;;;;;;;32.57;25.65;99395.16;4362415;32;35188;-80
2022/06/19 11:07:39;;;;;;;2.40;1.70;;;;;;;32.89;25.36;99389.16;4327261;33;34479;-78
2022/06/19 11:10:17;;;;;;;2.37;1.55;;;;;;;32.64;24.34;99386.31;4337169;32;34336;-79
2022/06/19 11:12:56;;;;;;;5.45;2.10;;;;;;;32.18;24.28;99390.94;4360879;32;34022;-79
2022/06/19 11:15:24;;;;;;;2.80;1.98;;;;;;;32.72;25.03;99393.63;4360851;32;35962;-79
2022/06/19 11:18:13;;;;;;;6.22;1.80;;;;;;;32.77;26.67;99398.53;4361986;32;34577;-80
2022/06/19 11:21:01;;;;;;;2.30;1.98;;;;;;;32.34;24.81;99389.41;4362051;32;34361;-79
2022/06/19 11:23:36;;;;;;;2.12;1.50;;;;;;;32.22;25.73;99386.09;4363165;32;34748;-79
2022/06/19 11:26:13;;;;;;;3.30;1.90;;;;;;;33.16;24.81;99395.41;4348485;32;35025;-79
2022/06/19 11:29:20;;;;;;;2.17;1.60;;;;;;;33.11;24.10;99385.09;4360650;32;34474;-79
2022/06/19 11:32:08;;;;;;;2.33;1.58;;;;;;;32.93;24.55;99371.66;4361637;32;34502;-79
2022/06/19 11:34:44;;;;;;;6.90;1.40;;;;;;;32.98;23.71;99365.78;4363205;32;34675;-80
2022/06/19 11:37:33;;;;;;;2.30;1.50;;;;;;;32.88;26.00;99360.50;4361236;32;34962;-79
2022/06/19 11:40:01;;;;;;;9.50;2.10;;;;;;;33.29;24.43;99360.75;4361452;32;34381;-79
2022/06/19 11:42:38;;;;;;;3.67;1.60;;;;;;;32.38;24.29;99370.06;4363029;32;33673;-79
2022/06/19 11:45:12;;;;;;;5.30;1.92;;;;;;;32.34;23.51;99373.25;4358197;32;33938;-79
2022/06/19 11:47:41;;;;;;;2.33;1.50;;;;;;;31.91;24.34;99360.37;4361248;32;33029;-80
2022/06/19 11:50:12;;;;;;;4.45;1.58;;;;;;;32.03;22.88;99362.81;4347530;32;34350;-79
2022/06/19 11:52:43;;;;;;;10.50;2.28;;;;;;;32.51;24.53;99364.28;4361832;32;33805;-79
2022/06/19 11:55:20;;;;;;;14.65;2.05;;;;;;;32.90;25.13;99363.91;4360264;32;33821;-78
2022/06/19 11:57:50;;;;;;;5.65;1.90;;;;;;;33.51;26.29;99366.53;4360586;32;35074;-79
2022/06/19 12:00:31;;;;;;;2.08;1.50;;;;;;;33.83;23.78;99359.56;4361169;32;34731;-79
2022/06/19 12:03:03;;;;;;;2.72;1.80;;;;;;;33.53;22.87;99357.28;4349457;32;33615;-79
2022/06/19 12:05:36;;;;;;;2.20;1.60;;;;;;;33.66;23.65;99346.03;4347971;32;34011;-79
2022/06/19 12:08:19;;;;;;;1.52;1.37;;;;;;;33.61;25.29;99342.97;4349448;32;36008;-79
2022/06/19 12:10:54;;;;;;;2.65;1.62;;;;;;;33.71;22.86;99335.59;4347978;32;34444;-78
2022/06/19 12:13:29;;;;;;;2.60;1.50;;;;;;;34.00;21.43;99336.97;4349435;32;33478;-79
2022/06/19 12:16:03;;;;;;;2.33;1.50;;;;;;;32.92;24.85;99334.91;4347779;32;33913;-79